This demonstration page uses our WeatherBlox Daily Observations layout. Learn more.

39.29038, -76.61219

Hourly Observations for April 8, 2016

Temp ( °F °C ) Dew Point ( °F °C ) Humidity (%) Winds ( mph kmh ) Pressure ( in mb ) Visibility ( mi km ) Precip ( " mm )
12:54 am 00:54 undefined 47 8.3 30 -1.1 52 52 undefined N/A 29.6 1002 N/A 0 0
1:54 am 01:54 undefined 45 7.2 30 -1.1 56 56 undefined N/A 29.61 1003 N/A 0 0
2:54 am 02:54 undefined 45 7.2 28 -2.2 52 52 undefined N/A 29.62 1003 N/A 0 0
3:54 am 03:54 undefined 44 6.7 28 -2.2 53 53 undefined N/A 29.63 1003 N/A 0 0
4:54 am 04:54 undefined 43 6.1 28 -2.2 56 56 undefined N/A 29.63 1003 N/A 0 0
5:54 am 05:54 undefined 43 6.1 28 -2.2 56 56 undefined N/A 29.64 1004 N/A 0 0
6:54 am 06:54 undefined 43 6.1 27 -2.8 53 53 undefined N/A 29.65 1004 N/A 0 0
7:54 am 07:54 undefined 45 7.2 27 -2.8 49 49 undefined N/A 29.7 1006 N/A 0 0
8:54 am 08:54 undefined 45 7.2 27 -2.8 49 49 undefined N/A 29.72 1006 N/A 0 0
9:54 am 09:54 undefined 45 7.2 24 -4.4 44 44 undefined N/A 29.72 1007 N/A 0 0
10:54 am 10:54 undefined 45 7.2 25 -3.9 46 46 undefined N/A 29.73 1007 N/A 0 0
11:54 am 11:54 undefined 48 8.9 26 -3.3 42 42 undefined N/A 29.76 1008 N/A 0 0
12:54 pm 12:54 undefined 47 8.3 22 -5.6 37 37 undefined N/A 29.75 1008 N/A 0 0
1:54 pm 13:54 undefined 48 8.9 22 -5.6 36 36 undefined N/A 29.76 1008 N/A 0 0
2:54 pm 14:54 undefined 50 10 24 -4.4 36 36 undefined N/A 29.78 1008 N/A 0 0
3:54 pm 15:54 undefined 51 10.6 24 -4.4 35 35 undefined N/A 29.75 1008 N/A 0 0
4:54 pm 16:54 undefined 51 10.6 22 -5.6 32 32 undefined N/A 29.75 1007 N/A 0 0
5:54 pm 17:54 undefined 51 10.6 22 -5.6 32 32 undefined N/A 29.75 1008 N/A 0 0
6:54 pm 18:54 undefined 50 10 21 -6.1 32 32 undefined N/A 29.78 1008 N/A 0 0
7:54 pm 19:54 undefined 49 9.4 22 -5.6 35 35 undefined N/A 29.8 1009 N/A 0 0
8:54 pm 20:54 undefined 48 8.9 21 -6.1 34 34 undefined N/A 29.8 1009 N/A 0 0
9:54 pm 21:54 undefined 47 8.3 22 -5.6 37 37 undefined N/A 29.8 1009 N/A 0 0
10:54 pm 22:54 undefined 47 8.3 24 -4.4 41 41 undefined N/A 29.8 1009 N/A 0 0
11:54 pm 23:54 undefined 44 6.7 24 -4.4 45 45 undefined N/A 29.78 1009 N/A 0 0

Powered by AerisWeather